Mura Tz17521 — 138107 — position and weather

sailwx.info

Track history (hours):
 
Tides and Currents Weather Stations Pressure Air Temp Water Temp Dewpoint Dewpoint Depression Visibility Wind Speed Wind Dir Waves Ship Positions

Mura Tz17521

Last reported at 2017-Oct-13 00:52 UTC. Time now 2017-Oct-18 02:33 UTC.
Position N 47°15' E 018°55'.

Length 168 m; draft 1 m.

Type: Wing in ground effect craft. MMSI: 238812840.

Date/timePositionNaut miles runAvg speedWind from/ knotsBaromVisibWave heightAir tempDewpointWater temp
2017-Oct-13 00:52N 47°15' E 018°55'3 8.9
2017-Oct-13 00:29N 47°19' E 018°56'4 8.4
2017-Oct-13 00:00N 47°23' E 018°58'4 8.2
2017-Oct-12 23:31N 47°25' E 019°03'4 8.9
2017-Oct-12 23:00N 47°29' E 019°03'4 8.5
2017-Oct-12 22:30N 47°33' E 019°04'56 6.3
2017-Oct-12 13:43N 47°45' E 017°43'2 9.8
2017-Oct-12 13:28N 47°47' E 017°40'4 9.8
2017-Oct-12 13:00N 47°50' E 017°36'4 7.4
2017-Oct-12 12:30N 47°53' E 017°32'0 0.2
2017-Oct-12 12:01N 47°53' E 017°32'1 2.4
2017-Oct-12 11:31N 47°54' E 017°31'3 5.3
2017-Oct-12 11:01N 47°56' E 017°28'4 8.2
2017-Oct-12 10:30N 47°59' E 017°24'4 7.8
2017-Oct-12 10:00N 48°00' E 017°18'4 8.2
2017-Oct-12 09:31N 48°02' E 017°13'5 9.3
2017-Oct-12 09:01N 48°06' E 017°09'3 6.9
2017-Oct-12 08:31N 48°08' E 017°05'5 9.4
2017-Oct-12 08:00N 48°10' E 016°58'6 9.9
2017-Oct-12 07:25N 48°08' E 016°51'1510.8
2017-Oct-12 06:04N 48°10' E 016°29'0 7.4
2017-Oct-12 06:00N 48°10' E 016°29'0 0.5
2017-Oct-12 05:30N 48°11' E 016°29'3 3.5
2017-Oct-12 04:41N 48°13' E 016°26'  
2017-Oct-03 05:27N 48°13' E 014°57'2 5.2
2017-Oct-03 05:01N 48°12' E 015°00'3 5.4
2017-Oct-03 04:30N 48°12' E 015°04'0 0.4
2017-Oct-03 04:01N 48°11' E 015°05'2 3.2
2017-Oct-03 03:31N 48°10' E 015°06'2 3.3
2017-Oct-03 03:01N 48°12' E 015°07'2 4.5
2017-Oct-03 02:31N 48°13' E 015°10'3 5.3
2017-Oct-03 02:01N 48°13' E 015°14'3 5.7
2017-Oct-03 01:31N 48°14' E 015°18'0 0.5
2017-Oct-03 00:58N 48°14' E 015°18'  
Track history (hours):
 
Tides and Currents Weather Stations Pressure Air Temp Water Temp Dewpoint Dewpoint Depression Visibility Wind Speed Wind Dir Waves Ship Positions

Mura Tz17521

Last reported at 2017-Oct-13 00:52 UTC. Time now 2017-Oct-18 02:33 UTC.
Position N 47°15' E 018°55'.

Length 168 m; draft 1 m.

Type: Wing in ground effect craft. MMSI: 238812840.

Date/timePositionNaut miles runAvg speedWind from/ knotsBaromVisibWave heightAir tempDewpointWater temp
2017-Oct-13 00:52N 47°15' E 018°55'3 8.9
2017-Oct-13 00:29N 47°19' E 018°56'4 8.4
2017-Oct-13 00:00N 47°23' E 018°58'4 8.2
2017-Oct-12 23:31N 47°25' E 019°03'4 8.9
2017-Oct-12 23:00N 47°29' E 019°03'4 8.5
2017-Oct-12 22:30N 47°33' E 019°04'56 6.3
2017-Oct-12 13:43N 47°45' E 017°43'2 9.8
2017-Oct-12 13:28N 47°47' E 017°40'4 9.8
2017-Oct-12 13:00N 47°50' E 017°36'4 7.4
2017-Oct-12 12:30N 47°53' E 017°32'0 0.2
2017-Oct-12 12:01N 47°53' E 017°32'1 2.4
2017-Oct-12 11:31N 47°54' E 017°31'3 5.3
2017-Oct-12 11:01N 47°56' E 017°28'4 8.2
2017-Oct-12 10:30N 47°59' E 017°24'4 7.8
2017-Oct-12 10:00N 48°00' E 017°18'4 8.2
2017-Oct-12 09:31N 48°02' E 017°13'5 9.3
2017-Oct-12 09:01N 48°06' E 017°09'3 6.9
2017-Oct-12 08:31N 48°08' E 017°05'5 9.4
2017-Oct-12 08:00N 48°10' E 016°58'6 9.9
2017-Oct-12 07:25N 48°08' E 016°51'1510.8
2017-Oct-12 06:04N 48°10' E 016°29'0 7.4
2017-Oct-12 06:00N 48°10' E 016°29'0 0.5
2017-Oct-12 05:30N 48°11' E 016°29'3 3.5
2017-Oct-12 04:41N 48°13' E 016°26'  
2017-Oct-03 05:27N 48°13' E 014°57'2 5.2
2017-Oct-03 05:01N 48°12' E 015°00'3 5.4
2017-Oct-03 04:30N 48°12' E 015°04'0 0.4
2017-Oct-03 04:01N 48°11' E 015°05'2 3.2
2017-Oct-03 03:31N 48°10' E 015°06'2 3.3
2017-Oct-03 03:01N 48°12' E 015°07'2 4.5
2017-Oct-03 02:31N 48°13' E 015°10'3 5.3
2017-Oct-03 02:01N 48°13' E 015°14'3 5.7
2017-Oct-03 01:31N 48°14' E 015°18'0 0.5
2017-Oct-03 00:58N 48°14' E 015°18'  

Dump ship's entire track history